Time;durP1;ratioP1;P1;durP2;ratioP2;P2;SDS_P1;SDS_P2;PMS_P1;PMS_P2;Temp;Humidity;BMP_temperature;BMP_pressure;BME280_temperature;BME280_humidity;BME280_pressure;Samples;Min_cycle;Max_cycle;Signal;HPM_P1;HPM_P2
2021/10/07 00:01:51;;;;;;;23.65;9.00;;;;;;;4.94;57.46;143478.33;1834990;77;22157;-65
2021/10/07 00:04:28;;;;;;;18.70;8.73;;;;;;;4.93;57.64;143475.81;1834983;77;22124;-64
2021/10/07 00:07:02;;;;;;;21.07;8.58;;;;;;;4.92;57.67;143473.33;1819608;77;27992;-64
2021/10/07 00:09:38;;;;;;;19.85;9.20;;;;;;;4.93;57.77;143475.81;1834971;77;22156;-66
2021/10/07 00:12:13;;;;;;;14.83;6.53;;;;;;;4.90;57.93;143468.33;1853549;77;22135;-64
2021/10/07 00:14:48;;;;;;;21.12;8.15;;;;;;;4.87;57.87;143460.84;1834998;77;22132;-65
2021/10/07 00:17:23;;;;;;;16.73;7.75;;;;;;;4.84;57.98;143452.13;1835099;77;22156;-65
2021/10/07 00:19:57;;;;;;;14.78;7.47;;;;;;;4.80;58.21;143443.36;1835006;77;22153;-65
2021/10/07 00:22:51;;;;;;;26.10;7.65;;;;;;;4.73;58.21;143427.16;1834955;77;22165;-65
2021/10/07 00:25:27;;;;;;;18.37;8.08;;;;;;;4.72;58.56;143424.64;1834932;77;22132;-63
2021/10/07 00:30:40;;;;;;;16.42;7.33;;;;;;;4.69;58.55;143417.16;1834926;77;22157;-64
2021/10/07 00:33:44;;;;;;;14.90;6.90;;;;;;;4.65;58.62;143405.92;1853575;77;22132;-66
2021/10/07 00:36:26;;;;;;;16.12;6.05;;;;;;;4.63;58.76;143402.20;1853521;77;22128;-65
2021/10/07 00:39:03;;;;;;;13.22;5.85;;;;;;;4.61;58.83;143395.97;1834956;77;22120;-64
2021/10/07 00:41:42;;;;;;;15.30;6.40;;;;;;;4.61;59.05;143395.97;1834875;77;22152;-65
2021/10/07 00:44:17;;;;;;;13.08;5.97;;;;;;;4.57;59.05;143388.44;1834998;77;22132;-64
2021/10/07 00:47:00;;;;;;;14.95;6.55;;;;;;;4.54;59.14;143380.95;1834960;77;22128;-64
2021/10/07 00:49:41;;;;;;;16.37;6.58;;;;;;;4.55;59.08;143383.48;1834154;77;22159;-64
2021/10/07 00:52:35;;;;;;;16.00;6.50;;;;;;;4.53;59.16;143378.48;1834983;77;22163;-62
2021/10/07 00:55:29;;;;;;;15.15;5.55;;;;;;;4.51;59.10;143373.48;1834992;77;22212;-64
2021/10/07 00:58:04;;;;;;;18.80;7.08;;;;;;;4.48;59.22;143366.00;1835004;77;22128;-64
2021/10/07 01:00:39;;;;;;;14.70;6.17;;;;;;;4.46;59.35;143361.00;1835099;77;22136;-64
2021/10/07 01:03:20;;;;;;;16.02;5.62;;;;;;;4.46;59.38;143359.77;1853518;77;22128;-63
2021/10/07 01:06:13;;;;;;;12.43;5.50;;;;;;;4.44;59.46;143356.00;1834959;77;22160;-64
2021/10/07 01:09:08;;;;;;;12.98;6.33;;;;;;;4.44;59.37;143356.00;1834972;77;22575;-63
2021/10/07 01:11:43;;;;;;;14.50;7.20;;;;;;;4.42;59.20;143351.00;1819405;77;28412;-63
2021/10/07 01:14:48;;;;;;;19.37;6.83;;;;;;;4.45;59.29;143357.25;1834973;77;22152;-63
2021/10/07 01:17:31;;;;;;;14.05;5.95;;;;;;;4.39;59.08;143343.53;1853471;77;22177;-62
2021/10/07 01:20:08;;;;;;;21.60;6.30;;;;;;;4.38;59.17;143341.05;1834863;77;22157;-63
2021/10/07 01:22:43;;;;;;;13.85;5.97;;;;;;;4.35;59.17;143333.53;1834962;77;22156;-63
2021/10/07 01:25:19;;;;;;;14.60;5.92;;;;;;;4.31;59.02;143323.58;1834984;77;22129;-62
2021/10/07 01:27:55;;;;;;;14.03;5.83;;;;;;;4.30;59.02;143322.34;1834996;77;20207;-64
2021/10/07 01:30:32;;;;;;;20.62;6.00;;;;;;;4.29;59.05;143318.56;1834790;77;22180;-64
2021/10/07 01:33:07;;;;;;;12.70;5.83;;;;;;;4.29;59.00;143318.56;1835005;77;22555;-64
2021/10/07 01:36:04;;;;;;;11.75;5.70;;;;;;;4.26;59.11;143312.33;1853525;77;22570;-63
2021/10/07 01:38:57;;;;;;;11.93;5.92;;;;;;;4.22;59.14;143302.33;1834958;77;22125;-64
2021/10/07 01:41:32;;;;;;;14.15;6.53;;;;;;;4.22;58.89;143301.09;1853437;77;22155;-64
2021/10/07 01:44:07;;;;;;;13.25;6.65;;;;;;;4.19;58.88;143293.62;1835004;77;22124;-65
2021/10/07 01:46:42;;;;;;;13.88;5.70;;;;;;;4.16;58.88;143287.39;1835033;77;22128;-63
2021/10/07 01:49:17;;;;;;;15.25;6.47;;;;;;;4.17;58.83;143288.63;1834978;77;22559;-66
2021/10/07 01:51:53;;;;;;;14.10;6.58;;;;;;;4.13;58.87;143281.14;1837809;77;27953;-65
2021/10/07 01:54:27;;;;;;;12.35;6.83;;;;;;;4.17;58.84;143289.86;1837779;77;27992;-65
2021/10/07 01:57:27;;;;;;;15.28;5.97;;;;;;;4.20;58.74;143296.09;1834127;77;22169;-64
2021/10/07 02:00:07;;;;;;;14.63;5.92;;;;;;;4.16;58.73;143286.14;1834921;77;22133;-63
2021/10/07 02:02:42;;;;;;;14.00;5.47;;;;;;;4.11;58.69;143276.14;1853479;77;22201;-65
2021/10/07 02:05:18;;;;;;;12.60;6.53;;;;;;;4.10;58.72;143273.67;1819292;77;27982;-65
2021/10/07 02:07:53;;;;;;;13.03;6.22;;;;;;;4.12;58.65;143278.67;1819370;77;28416;-64
2021/10/07 02:10:28;;;;;;;14.07;6.03;;;;;;;4.16;58.53;143286.14;1834975;77;22137;-65
2021/10/07 02:13:24;;;;;;;17.40;6.00;;;;;;;4.11;58.55;143276.14;1853533;77;22546;-66
2021/10/07 02:16:00;;;;;;;14.38;5.17;;;;;;;4.08;58.59;143268.67;1853542;77;22164;-66
2021/10/07 02:18:35;;;;;;;12.47;5.35;;;;;;;4.06;58.73;143263.67;1834907;77;22140;-64
2021/10/07 02:21:10;;;;;;;12.05;5.78;;;;;;;4.02;58.97;143253.72;1835060;77;22227;-65
2021/10/07 02:24:04;;;;;;;18.80;5.90;;;;;;;3.99;59.06;143246.20;1834967;77;22129;-65
2021/10/07 02:26:39;;;;;;;15.63;6.08;;;;;;;3.98;59.12;143243.72;1819399;77;27982;-66
2021/10/07 02:29:14;;;;;;;14.18;6.37;;;;;;;3.98;59.10;143243.72;1853534;77;22144;-67
2021/10/07 02:31:49;;;;;;;17.67;5.47;;;;;;;3.97;59.14;143241.25;1835102;77;22567;-64
2021/10/07 02:34:24;;;;;;;15.10;5.75;;;;;;;3.94;59.22;143233.72;1820201;77;22191;-65
2021/10/07 02:36:59;;;;;;;11.48;5.15;;;;;;;3.91;59.50;143227.50;1853481;77;22582;-62
2021/10/07 02:39:53;;;;;;;10.50;5.90;;;;;;;3.86;59.63;143215.02;1853400;77;22135;-64
2021/10/07 02:42:28;;;;;;;17.37;6.25;;;;;;;3.82;59.84;143203.84;1834992;77;22595;-66
2021/10/07 02:45:07;;;;;;;12.00;5.75;;;;;;;3.79;59.85;143196.31;1853532;77;22123;-65
2021/10/07 02:47:41;;;;;;;12.15;5.53;;;;;;;3.78;60.05;143193.84;1835212;77;22137;-62
2021/10/07 02:50:19;;;;;;;14.25;5.87;;;;;;;3.75;60.13;143186.36;1853449;77;22163;-64
2021/10/07 02:52:55;;;;;;;19.32;7.00;;;;;;;3.69;60.28;143173.89;1835004;77;22124;-65
2021/10/07 02:55:36;;;;;;;13.30;7.08;;;;;;;3.69;60.40;143173.89;1834157;77;22185;-63
2021/10/07 02:58:11;;;;;;;14.30;6.87;;;;;;;3.67;60.62;143168.91;1835001;77;22156;-65
2021/10/07 03:00:46;;;;;;;17.20;7.58;;;;;;;3.63;60.62;143157.66;1835201;77;22597;-64
2021/10/07 03:03:20;;;;;;;18.57;7.85;;;;;;;3.59;60.70;143148.95;1834889;77;22533;-66
2021/10/07 03:06:01;;;;;;;21.93;7.65;;;;;;;3.58;60.94;143145.19;1832995;77;22176;-68
2021/10/07 03:08:37;;;;;;;16.37;7.15;;;;;;;3.55;61.01;143138.97;1829346;77;22158;-64
2021/10/07 03:11:32;;;;;;;15.13;6.97;;;;;;;3.52;61.19;143130.25;1853895;77;22558;-64
2021/10/07 03:14:26;;;;;;;19.37;8.10;;;;;;;3.50;61.28;143125.25;1853171;77;22230;-63
2021/10/07 03:17:07;;;;;;;18.73;7.05;;;;;;;3.46;61.45;143117.78;1825848;77;22183;-64
2021/10/07 03:20:10;;;;;;;14.75;6.90;;;;;;;3.44;61.61;143112.78;1853262;77;22614;-64
2021/10/07 03:23:04;;;;;;;16.60;7.10;;;;;;;3.42;61.78;143106.56;1852192;77;22223;-65
2021/10/07 03:25:57;;;;;;;19.27;7.55;;;;;;;3.43;61.83;143109.03;1841329;77;22219;-64
2021/10/07 03:28:33;;;;;;;14.85;7.03;;;;;;;3.41;61.96;143104.03;1832622;77;22228;-63
2021/10/07 03:31:08;;;;;;;11.78;6.40;;;;;;;3.39;62.06;143099.09;1851825;77;22219;-65
2021/10/07 03:33:42;;;;;;;15.65;6.20;;;;;;;3.38;62.21;143097.80;1833636;77;22227;-64
2021/10/07 03:36:17;;;;;;;15.55;5.97;;;;;;;3.37;62.22;143095.33;1834970;77;22141;-65
2021/10/07 03:38:52;;;;;;;14.83;6.10;;;;;;;3.35;62.42;143090.33;1834972;77;22132;-63
2021/10/07 03:41:33;;;;;;;14.40;5.87;;;;;;;3.33;62.53;143085.34;1853546;77;22127;-66
2021/10/07 03:44:09;;;;;;;11.70;6.40;;;;;;;3.29;62.76;143074.16;1837832;77;38733;-63
2021/10/07 03:46:50;;;;;;;10.88;5.95;;;;;;;3.34;62.76;143086.63;1834147;77;22679;-62
2021/10/07 03:49:44;;;;;;;12.78;5.85;;;;;;;3.30;62.76;143076.63;1853472;77;22156;-64
2021/10/07 03:52:26;;;;;;;23.15;5.92;;;;;;;3.28;62.89;143072.87;1853528;77;22183;-63
2021/10/07 03:55:01;;;;;;;15.45;6.22;;;;;;;3.26;62.99;143069.16;1835008;77;22164;-65
2021/10/07 03:57:36;;;;;;;16.00;6.35;;;;;;;3.25;63.06;143066.64;1819401;77;28009;-62
2021/10/07 04:00:12;;;;;;;15.40;7.00;;;;;;;3.28;62.91;143071.63;1835084;77;22132;-63
2021/10/07 04:03:08;;;;;;;13.30;7.08;;;;;;;3.26;62.99;143069.16;1853641;77;22143;-63
2021/10/07 04:05:43;;;;;;;16.60;6.97;;;;;;;3.24;63.11;143064.16;1853535;77;22124;-64
2021/10/07 04:08:18;;;;;;;14.87;7.08;;;;;;;3.23;63.08;143060.41;1834978;77;22160;-64
2021/10/07 04:10:53;;;;;;;13.22;6.67;;;;;;;3.19;63.20;143051.70;1835037;77;22208;-63
2021/10/07 04:13:27;;;;;;;18.80;7.70;;;;;;;3.17;63.41;143046.70;1853543;77;22217;-65
2021/10/07 04:16:04;;;;;;;17.42;7.30;;;;;;;3.15;63.52;143041.70;1834945;77;22147;-64
2021/10/07 04:18:58;;;;;;;15.55;6.75;;;;;;;3.16;63.55;143044.22;1834979;77;22567;-65
2021/10/07 04:21:53;;;;;;;16.17;7.12;;;;;;;3.16;63.57;143044.22;1844924;77;22252;-65
2021/10/07 04:24:47;;;;;;;15.25;6.53;;;;;;;3.18;63.61;143049.22;1853537;77;22124;-64
2021/10/07 04:27:28;;;;;;;16.50;5.83;;;;;;;3.18;63.57;143049.22;1834145;77;22128;-65
2021/10/07 04:30:07;;;;;;;15.13;6.12;;;;;;;3.21;63.59;143055.45;1835010;77;22213;-64
2021/10/07 04:32:41;;;;;;;12.23;5.90;;;;;;;3.25;63.46;143066.64;1853470;77;22124;-65
2021/10/07 04:35:36;;;;;;;15.18;5.95;;;;;;;3.38;63.41;143096.56;1834901;77;22132;-65
2021/10/07 04:38:11;;;;;;;16.23;6.53;;;;;;;3.98;62.47;143242.48;1834896;77;22551;-64
2021/10/07 04:40:46;;;;;;;17.92;6.72;;;;;;;4.65;59.96;143407.16;1834947;77;22160;-62
2021/10/07 04:43:21;;;;;;;13.98;6.70;;;;;;;5.23;57.94;143548.23;1853511;77;22123;-63
2021/10/07 04:45:56;;;;;;;17.70;5.95;;;;;;;5.78;56.26;143681.91;1834982;77;22574;-63
2021/10/07 04:48:31;;;;;;;18.48;6.42;;;;;;;6.35;54.85;143820.64;1834983;77;22124;-65
2021/10/07 04:51:06;;;;;;;15.40;6.95;;;;;;;6.85;52.61;143943.16;1834930;77;22230;-64
2021/10/07 04:53:47;;;;;;;16.42;6.80;;;;;;;7.28;51.37;144048.22;1853536;77;22192;-63
2021/10/07 04:56:21;;;;;;;13.72;6.92;;;;;;;7.58;50.56;144123.28;1834928;77;22132;-63
2021/10/07 04:58:56;;;;;;;14.73;6.95;;;;;;;7.86;49.22;144189.56;1853526;77;22152;-65
2021/10/07 05:01:50;;;;;;;13.65;6.42;;;;;;;8.17;48.89;144265.95;1853594;77;22124;-63
2021/10/07 05:04:27;;;;;;;15.65;6.62;;;;;;;8.62;47.60;144377.37;1834717;77;22574;-65
2021/10/07 05:07:07;;;;;;;15.00;6.95;;;;;;;9.11;46.78;144496.41;1834161;77;22168;-66
2021/10/07 05:09:42;;;;;;;11.43;6.92;;;;;;;9.40;45.61;144566.56;1834914;77;22156;-65
2021/10/07 05:12:17;;;;;;;21.42;8.53;;;;;;;9.91;44.90;144691.89;1834947;77;22205;-64
2021/10/07 05:14:59;;;;;;;19.23;8.93;;;;;;;10.38;43.22;144807.25;1853359;77;22206;-65
2021/10/07 05:17:34;;;;;;;17.27;8.13;;;;;;;10.46;43.31;144827.36;1834953;77;22157;-64
2021/10/07 05:20:29;;;;;;;16.23;7.55;;;;;;;10.81;42.25;144912.63;1834939;77;22128;-66
2021/10/07 05:23:24;;;;;;;13.95;7.47;;;;;;;11.04;41.42;144969.08;1819114;77;28037;-64
2021/10/07 05:25:59;;;;;;;16.90;6.75;;;;;;;11.14;40.69;144994.17;1835045;77;22576;-64
2021/10/07 05:28:44;;;;;;;19.80;6.97;;;;;;;11.83;40.36;145163.66;1834220;77;22184;-65
2021/10/07 05:31:16;;;;;;;16.75;7.33;;;;;;;12.05;39.06;145216.42;1834949;77;22559;-60
2021/10/07 05:34:10;;;;;;;19.32;7.62;;;;;;;11.93;38.61;145188.81;1834565;77;22160;-62
2021/10/07 05:37:03;;;;;;;17.48;6.97;;;;;;;12.14;39.15;145239.03;1834858;77;22243;-62
2021/10/07 05:39:38;;;;;;;18.65;6.70;;;;;;;12.65;38.47;145363.39;1834997;77;22159;-61
2021/10/07 05:42:32;;;;;;;17.17;7.40;;;;;;;12.97;36.99;145442.52;1834928;77;22132;-62
2021/10/07 05:45:13;;;;;;;18.37;6.95;;;;;;;13.54;36.45;145583.36;1834099;77;22136;-62
2021/10/07 05:47:48;;;;;;;16.00;6.78;;;;;;;13.51;35.66;145574.53;1853444;77;22550;-65
2021/10/07 05:50:24;;;;;;;12.43;6.08;;;;;;;13.97;35.07;145688.98;1834773;77;22181;-66
2021/10/07 05:53:06;;;;;;;16.00;6.25;;;;;;;14.23;34.13;145751.88;1834122;77;22268;-72
2021/10/07 05:55:51;;;;;;;13.18;5.42;;;;;;;13.93;34.51;145677.66;1853371;77;22199;-66
2021/10/07 05:58:44;;;;;;;13.60;6.12;;;;;;;14.54;34.20;145828.64;1835046;77;22163;-60
2021/10/07 06:01:38;;;;;;;14.93;5.75;;;;;;;15.04;33.06;145950.73;1834902;77;22137;-65
2021/10/07 06:04:32;;;;;;;13.00;5.15;;;;;;;14.78;33.38;145887.77;1834845;77;22574;-69
2021/10/07 06:07:06;;;;;;;16.93;5.75;;;;;;;14.83;32.98;145899.09;1853716;77;22238;-64
2021/10/07 06:10:00;;;;;;;12.60;5.35;;;;;;;14.64;33.31;145852.56;1835004;77;22187;-71
2021/10/07 06:12:36;;;;;;;18.12;5.95;;;;;;;14.98;32.93;145938.14;1837806;77;28413;-67
2021/10/07 06:15:13;;;;;;;13.03;5.95;;;;;;;15.57;31.89;146081.61;1853632;77;22132;-66
2021/10/07 06:18:06;;;;;;;18.70;5.72;;;;;;;15.84;31.18;146149.67;1834195;77;22144;-64
2021/10/07 06:20:42;;;;;;;15.70;5.70;;;;;;;15.58;31.46;146085.41;1834662;77;22556;-62
2021/10/07 06:23:39;;;;;;;15.40;4.83;;;;;;;15.61;31.57;146091.70;1834731;77;22559;-66
2021/10/07 06:26:13;;;;;;;14.38;6.53;;;;;;;15.56;31.19;146080.36;1853551;77;22167;-65
2021/10/07 06:29:08;;;;;;;15.60;6.08;;;;;;;15.88;31.47;146158.50;1853473;77;22578;-65
2021/10/07 06:31:43;;;;;;;15.70;6.10;;;;;;;16.64;30.50;146346.22;1853569;77;20457;-66
2021/10/07 06:34:19;;;;;;;16.70;6.53;;;;;;;16.70;29.97;146361.31;1853516;77;22566;-68
2021/10/07 06:36:55;;;;;;;15.50;5.67;;;;;;;16.26;30.15;146251.72;1853515;77;22159;-66
2021/10/07 06:39:49;;;;;;;10.38;4.80;;;;;;;15.74;30.79;146124.47;1853823;77;22151;-68
2021/10/07 06:42:23;;;;;;;9.80;5.30;;;;;;;15.39;31.18;146038.84;1834994;77;22128;-72
2021/10/07 06:45:01;;;;;;;15.68;5.62;;;;;;;14.84;32.01;145902.89;1834781;77;22607;-71
2021/10/07 06:47:39;;;;;;;15.40;5.30;;;;;;;14.93;32.51;145925.56;1835337;77;22155;-61
2021/10/07 06:50:14;;;;;;;19.12;6.12;;;;;;;15.34;31.92;146026.25;1835882;77;22136;-67
2021/10/07 06:53:07;;;;;;;13.60;5.92;;;;;;;15.68;31.57;146109.34;1835019;77;22156;-65
2021/10/07 06:55:48;;;;;;;21.40;6.53;;;;;;;16.10;30.65;146212.64;1834230;77;22579;-65
2021/10/07 06:58:24;;;;;;;14.50;5.53;;;;;;;16.10;30.42;146211.39;1834803;77;22159;-66
2021/10/07 07:01:00;;;;;;;18.82;5.95;;;;;;;16.22;30.75;146242.88;1853623;77;22158;-66
2021/10/07 07:03:57;;;;;;;15.93;5.40;;;;;;;16.49;30.02;146308.41;1853557;77;22208;-67
2021/10/07 07:06:54;;;;;;;12.05;5.37;;;;;;;17.01;29.71;146436.98;1807112;77;22213;-69
2021/10/07 07:09:29;;;;;;;9.70;4.72;;;;;;;17.31;28.34;146510.12;1834977;77;20260;-68
2021/10/07 07:12:05;;;;;;;17.82;5.72;;;;;;;17.42;28.43;146536.58;1819313;77;28173;-60
2021/10/07 07:15:00;;;;;;;10.45;5.50;;;;;;;17.53;28.43;146565.61;1853504;77;22143;-63
2021/10/07 07:17:36;;;;;;;14.98;5.42;;;;;;;16.89;29.16;146408.03;1834941;77;22164;-65
2021/10/07 07:20:12;;;;;;;15.58;5.20;;;;;;;17.07;28.62;146452.14;1837737;77;28188;-66
2021/10/07 07:22:47;;;;;;;18.62;5.00;;;;;;;17.53;27.90;146565.61;1819278;77;28274;-64
2021/10/07 07:25:22;;;;;;;16.75;6.28;;;;;;;17.25;28.24;146496.25;1835029;77;22184;-66
2021/10/07 07:27:57;;;;;;;13.78;5.62;;;;;;;16.56;29.35;146326.02;1835092;77;22201;-63
2021/10/07 07:30:51;;;;;;;10.08;4.50;;;;;;;17.16;28.57;146473.55;1834957;77;22165;-69
2021/10/07 07:33:48;;;;;;;12.15;5.17;;;;;;;16.77;28.82;146376.47;1834939;77;22128;-69
2021/10/07 07:36:26;;;;;;;16.55;5.05;;;;;;;16.86;29.03;146400.42;1853583;77;22156;-69
2021/10/07 07:39:20;;;;;;;12.10;4.80;;;;;;;16.66;28.78;146351.27;1834896;77;22124;-70
2021/10/07 07:41:55;;;;;;;11.15;4.37;;;;;;;16.87;28.85;146402.97;1835019;77;22599;-63
2021/10/07 07:44:50;;;;;;;10.88;5.00;;;;;;;17.04;28.17;146444.53;1853512;77;22208;-65
2021/10/07 07:47:24;;;;;;;13.35;6.15;;;;;;;16.81;28.54;146386.56;1835020;77;22152;-63
2021/10/07 07:49:59;;;;;;;16.25;4.95;;;;;;;17.18;28.34;146478.59;1834913;77;22543;-65
2021/10/07 07:52:35;;;;;;;18.07;4.95;;;;;;;18.15;27.39;146718.25;1834907;77;22599;-67
2021/10/07 07:55:10;;;;;;;15.53;4.93;;;;;;;19.35;26.14;147012.38;1819550;77;27981;-65
2021/10/07 07:57:51;;;;;;;13.38;5.30;;;;;;;19.48;24.93;147046.44;1826568;77;22156;-69
2021/10/07 08:00:28;;;;;;;10.03;4.20;;;;;;;19.17;25.51;146968.19;1775054;77;22813;-65
2021/10/07 08:03:03;;;;;;;14.17;4.47;;;;;;;19.87;24.37;147141.20;1837914;77;27976;-70
2021/10/07 08:05:38;;;;;;;14.80;4.33;;;;;;;19.44;24.17;147035.11;1853529;77;22129;-70
2021/10/07 08:08:33;;;;;;;14.70;4.20;;;;;;;19.07;24.49;146945.44;1834877;77;22151;-64
2021/10/07 08:11:14;;;;;;;13.40;3.47;;;;;;;18.38;25.04;146775.02;1834215;77;22587;-68
2021/10/07 08:13:50;;;;;;;8.40;3.70;;;;;;;17.04;26.50;146444.53;1834937;77;22592;-65
2021/10/07 08:16:29;;;;;;;11.45;3.85;;;;;;;16.39;26.89;146283.22;1837910;77;27965;-68
2021/10/07 08:19:04;;;;;;;9.00;3.60;;;;;;;15.71;27.94;146116.94;1853592;77;22616;-67
2021/10/07 08:21:41;;;;;;;14.73;4.70;;;;;;;14.69;29.44;145865.14;1853543;77;22550;-64
2021/10/07 08:45:50;;;;;;;11.68;4.10;;;;;;;12.65;31.74;145364.64;1814846;77;22232;-66
2021/10/07 08:48:26;;;;;;;11.63;3.80;;;;;;;12.37;32.55;145296.80;1794411;77;27929;-64
2021/10/07 08:51:21;;;;;;;13.38;3.70;;;;;;;11.81;33.27;145158.62;1819335;77;28386;-64
2021/10/07 08:53:56;;;;;;;12.60;3.25;;;;;;;11.55;34.02;145094.63;1834975;77;22130;-64
2021/10/07 08:56:31;;;;;;;23.95;3.60;;;;;;;11.37;34.56;145050.69;1853630;77;22152;-63
2021/10/07 08:59:08;;;;;;;10.78;3.80;;;;;;;11.18;35.19;145002.98;1835093;77;22575;-60
2021/10/07 09:02:07;;;;;;;16.12;3.67;;;;;;;11.00;35.85;144960.31;1834971;77;22156;-62
2021/10/07 09:04:40;;;;;;;10.30;3.47;;;;;;;10.86;36.08;144926.45;1834994;77;22160;-61
2021/10/07 09:07:15;;;;;;;9.40;3.30;;;;;;;10.64;35.96;144871.25;1834999;77;22570;-63
2021/10/07 09:09:56;;;;;;;12.65;3.02;;;;;;;10.27;36.33;144780.89;1853544;77;22152;-60
2021/10/07 09:13:12;;;;;;;8.58;2.45;;;;;;;9.97;36.79;144708.20;1834100;77;22602;-63
2021/10/07 09:16:00;;;;;;;11.75;2.85;;;;;;;9.70;36.91;144640.50;1854133;77;22146;-60
2021/10/07 09:18:34;;;;;;;11.30;2.87;;;;;;;9.59;37.51;144612.91;1812070;77;22644;-63
2021/10/07 09:21:15;;;;;;;11.63;3.10;;;;;;;9.55;37.87;144604.16;1853498;77;22612;-61
2021/10/07 09:23:53;;;;;;;13.83;2.87;;;;;;;9.59;37.93;144614.16;1834860;77;22142;-62
2021/10/07 09:26:28;;;;;;;5.78;2.77;;;;;;;9.64;37.79;144626.73;1853531;77;22163;-59
2021/10/07 09:29:35;;;;;;;10.15;3.22;;;;;;;9.63;37.99;144624.19;1829197;77;22595;-63
2021/10/07 09:32:11;;;;;;;7.30;3.08;;;;;;;9.66;37.55;144630.47;1819552;77;27975;-61
2021/10/07 09:34:49;;;;;;;9.03;2.90;;;;;;;9.57;37.56;144609.17;1835150;77;22136;-59
2021/10/07 09:37:29;;;;;;;12.30;3.42;;;;;;;9.47;37.80;144584.11;1834955;77;22128;-60
2021/10/07 09:40:26;;;;;;;16.12;3.60;;;;;;;9.48;38.38;144587.84;1834952;77;22161;-58
2021/10/07 09:43:20;;;;;;;12.03;3.35;;;;;;;9.57;38.45;144609.17;1834900;77;22224;-62
2021/10/07 09:45:55;;;;;;;8.83;3.27;;;;;;;9.63;38.70;144622.95;1853565;77;22159;-58
2021/10/07 09:48:42;;;;;;;10.23;2.95;;;;;;;9.66;38.13;144631.70;1834963;77;22574;-59
2021/10/07 09:51:49;;;;;;;12.53;3.15;;;;;;;9.54;38.53;144601.63;1819272;77;22203;-61
2021/10/07 09:54:44;;;;;;;8.08;3.52;;;;;;;9.56;38.29;144606.64;1832274;77;22649;-61
2021/10/07 09:57:25;;;;;;;10.82;3.50;;;;;;;9.54;38.92;144601.63;1834148;77;22184;-60
2021/10/07 10:00:08;;;;;;;7.92;3.83;;;;;;;9.60;38.88;144616.69;1834170;77;22618;-59
2021/10/07 10:03:04;;;;;;;10.35;3.60;;;;;;;9.63;39.21;144624.19;1819336;77;27987;-63
2021/10/07 10:05:58;;;;;;;8.85;3.77;;;;;;;9.69;39.07;144637.97;1819451;77;28042;-59
2021/10/07 10:08:33;;;;;;;21.02;4.12;;;;;;;9.77;39.52;144659.31;1834980;77;22137;-59
2021/10/07 10:11:27;;;;;;;11.65;3.72;;;;;;;9.81;39.69;144666.81;1834860;77;22132;-61
2021/10/07 10:14:02;;;;;;;14.23;3.52;;;;;;;9.91;39.72;144691.89;1800745;79;22585;-60
2021/10/07 10:16:59;;;;;;;9.75;3.50;;;;;;;10.07;39.69;144730.73;1835728;77;22227;-60
2021/10/07 10:19:34;;;;;;;8.95;3.27;;;;;;;10.20;39.11;144764.62;1835028;77;22136;-58
2021/10/07 10:22:10;;;;;;;10.68;3.12;;;;;;;10.36;38.75;144803.53;1835134;77;22168;-64
2021/10/07 10:25:05;;;;;;;8.35;3.35;;;;;;;10.45;38.96;144823.58;1838525;77;22209;-59
2021/10/07 10:28:07;;;;;;;;;;;;;;;;;;;;;
2021/10/07 10:30:46;;;;;;;9.95;2.80;;;;;;;10.69;38.02;144883.80;1834972;77;22617;-60
2021/10/07 10:33:49;;;;;;;10.03;2.85;;;;;;;10.86;37.57;144926.45;1853457;77;22196;-61
2021/10/07 10:36:58;;;;;;;9.78;2.62;;;;;;;10.82;37.31;144915.16;1853540;77;22626;-60
2021/10/07 10:39:57;;;;;;;9.25;3.22;;;;;;;10.69;37.62;144883.80;1853535;77;22165;-61
2021/10/07 10:42:38;;;;;;;8.45;2.80;;;;;;;10.69;37.88;144883.80;1834092;77;22184;-62
2021/10/07 10:45:19;;;;;;;5.50;2.83;;;;;;;10.81;37.13;144913.92;1800069;79;22697;-60
2021/10/07 10:47:54;;;;;;;16.65;2.60;;;;;;;10.84;37.39;144920.19;1834988;77;22140;-66
2021/10/07 10:51:02;;;;;;;7.67;2.52;;;;;;;10.96;37.26;144949.02;1834575;77;22161;-62
2021/10/07 10:54:08;;;;;;;10.40;2.50;;;;;;;11.13;35.71;144990.44;1853526;77;22167;-65
2021/10/07 10:57:05;;;;;;;8.48;2.27;;;;;;;11.00;35.03;144959.06;1834223;77;22180;-58
2021/10/07 11:00:32;;;;;;;11.97;2.20;;;;;;;11.12;34.37;144987.91;1853503;77;22174;-58
2021/10/07 11:06:06;;;;;;;6.90;2.58;;;;;;;11.34;34.81;145041.88;1834146;77;22578;-56
2021/10/07 11:09:00;;;;;;;10.03;2.80;;;;;;;11.58;34.55;145100.89;1835116;77;22191;-69
2021/10/07 11:11:45;;;;;;;11.30;2.50;;;;;;;11.77;34.56;145148.56;1834210;77;22148;-66
2021/10/07 11:14:27;;;;;;;6.85;2.45;;;;;;;11.82;33.68;145161.12;1834261;77;22164;-68
2021/10/07 11:17:31;;;;;;;7.30;2.02;;;;;;;11.71;32.66;145133.52;1834004;77;22192;-69
2021/10/07 11:20:31;;;;;;;12.18;2.80;;;;;;;11.68;33.25;145126.00;1853566;77;22163;-73
2021/10/07 11:23:25;;;;;;;8.65;2.55;;;;;;;11.92;33.22;145185.03;1835064;77;22129;-71
2021/10/07 11:26:23;;;;;;;9.38;3.20;;;;;;;12.05;33.31;145216.42;1853568;77;22201;-64
2021/10/07 11:29:17;;;;;;;12.47;2.58;;;;;;;12.18;32.65;145249.06;1834955;77;22559;-66
2021/10/07 11:31:52;;;;;;;12.28;2.15;;;;;;;12.24;32.09;145264.16;1835017;77;22559;-67
2021/10/07 11:34:28;;;;;;;10.05;2.58;;;;;;;12.17;32.31;145246.56;1834980;77;20104;-68
2021/10/07 11:37:03;;;;;;;7.90;2.42;;;;;;;12.21;32.65;145256.58;1879638;75;22140;-70
2021/10/07 11:40:40;;;;;;;12.33;2.42;;;;;;;12.13;32.11;145236.50;1853679;77;22160;-69
2021/10/07 11:43:26;;;;;;;4.53;2.08;;;;;;;12.22;32.34;145259.13;1853515;77;22219;-66
2021/10/07 11:46:21;;;;;;;7.03;2.27;;;;;;;12.36;31.76;145294.31;1853662;77;22591;-72
2021/10/07 11:49:15;;;;;;;14.25;3.15;;;;;;;12.37;31.86;145296.80;1835172;77;22171;-61
2021/10/07 11:51:53;;;;;;;6.00;2.35;;;;;;;12.43;31.76;145310.61;1835954;77;22571;-62
2021/10/07 11:54:35;;;;;;;8.98;2.12;;;;;;;12.46;31.75;145316.89;1836058;77;22197;-61
2021/10/07 11:57:35;;;;;;;5.50;1.90;;;;;;;12.29;31.69;145276.72;1836256;77;22206;-61
2021/10/07 12:00:45;;;;;;;8.05;2.67;;;;;;;12.17;32.19;145246.56;1853529;77;22617;-71
2021/10/07 12:03:43;;;;;;;5.22;2.17;;;;;;;12.23;31.98;145261.63;1853832;77;22204;-70
2021/10/07 12:06:38;;;;;;;13.32;2.67;;;;;;;12.46;31.47;145316.89;1854281;77;22577;-66
2021/10/07 12:09:14;;;;;;;9.93;2.30;;;;;;;12.46;31.33;145318.14;1835694;77;22562;-72
2021/10/07 12:11:56;;;;;;;11.53;2.47;;;;;;;12.34;31.70;145288.03;1834456;77;22191;-73
2021/10/07 12:14:34;;;;;;;7.42;2.85;;;;;;;12.55;31.74;145339.52;1834517;77;22644;-67
2021/10/07 12:17:34;;;;;;;9.73;3.12;;;;;;;13.03;31.19;145457.63;1834278;77;22188;-67
2021/10/07 12:20:28;;;;;;;10.78;2.62;;;;;;;13.32;31.07;145528.05;1835183;77;22137;-75
2021/10/07 12:23:21;;;;;;;7.75;2.87;;;;;;;13.46;30.47;145564.50;1835125;77;22152;-76
2021/10/07 12:26:02;;;;;;;8.55;3.30;;;;;;;13.31;29.89;145525.55;1835230;77;22153;-61
2021/10/07 12:28:42;;;;;;;7.17;2.40;;;;;;;13.11;29.63;145477.72;1854203;77;22144;-70
2021/10/07 12:31:30;;;;;;;8.20;2.20;;;;;;;13.13;30.10;145482.75;1853589;77;22224;-68
2021/10/07 12:34:31;;;;;;;8.38;2.50;;;;;;;13.20;30.31;145499.06;1835038;77;22144;-68
2021/10/07 12:37:28;;;;;;;14.75;2.77;;;;;;;13.38;30.53;145544.41;1835030;77;22132;-68
2021/10/07 12:40:28;;;;;;;12.78;3.05;;;;;;;13.59;30.21;145595.94;1834286;77;22140;-66
2021/10/07 12:43:23;;;;;;;15.50;3.02;;;;;;;13.80;30.01;145646.22;1853611;77;22150;-64
2021/10/07 12:46:25;;;;;;;8.83;2.52;;;;;;;13.80;30.07;145646.22;1853703;77;22159;-62
2021/10/07 12:49:00;;;;;;;12.20;2.83;;;;;;;13.63;30.00;145605.97;1854477;77;22120;-65
2021/10/07 12:52:38;;;;;;;9.13;2.37;;;;;;;13.46;29.84;145564.50;1835347;77;22224;-68
2021/10/07 12:55:15;;;;;;;15.45;2.75;;;;;;;13.49;30.02;145570.80;1835005;77;22225;-66
2021/10/07 12:57:56;;;;;;;9.58;2.92;;;;;;;13.51;30.12;145574.53;1834097;77;22167;-63
2021/10/07 13:01:14;;;;;;;12.30;2.72;;;;;;;13.27;29.78;145516.72;1834103;77;22161;-62
2021/10/07 13:04:24;;;;;;;14.35;2.77;;;;;;;13.18;30.06;145494.08;1834209;77;22184;-65
2021/10/07 13:07:08;;;;;;;11.45;2.37;;;;;;;13.01;29.26;145452.59;1834269;77;22215;-64
2021/10/07 13:09:43;;;;;;;7.55;2.30;;;;;;;12.87;29.48;145417.39;1853821;77;22127;-64